Saxton, Pennsylvania
Current Conditions -  °F | °C
As of 11:29 PM on Friday 19 Dec 2014 (Local Time) from KAOO Reporting Station
Broken Clouds Broken Clouds  
Wind Chill: 26°   Ceiling: 2400
Heat Index: 26°   Visibility: 10mi
Dew Point: 18°   Wind: 3mph
Humidity: 71%   Direction: NA
Pressure: 30.21"   Gusts: NA
Location:  40.22°N, 78.24°W
Report Text: KAOO 200429Z AUTO VRB03KT 10SM BKN024 M03/M08 A3021 RMK AO2 T10331078
Loading
Personal Weather Stations






























Interactive Weather Map New forecast layout! Learn more

10-Day Weather Forecast

Advertisements
Track Severe Weather on mobile